createdAt,value
2023-04-27T00:00:01.023Z,78.05
2023-04-27T00:02:29.502Z,77.49
2023-04-27T00:04:57.929Z,79.79
2023-04-27T00:07:26.778Z,74.59
2023-04-27T00:09:54.622Z,74.47
2023-04-27T00:12:22.974Z,73.02
2023-04-27T00:14:51.161Z,75.43
2023-04-27T00:17:19.056Z,75.32
2023-04-27T00:19:47.740Z,75.54
2023-04-27T00:22:16.159Z,73.08
2023-04-27T00:24:44.307Z,70.20
2023-04-27T00:27:13.749Z,69.51
2023-04-27T00:29:43.252Z,69.41
2023-04-27T00:32:11.548Z,70.90
2023-04-27T00:34:39.850Z,71.12
2023-04-27T00:37:07.868Z,69.79
2023-04-27T00:39:36.418Z,70.24
2023-04-27T00:42:04.862Z,70.18
2023-04-27T00:44:32.838Z,73.08
2023-04-27T00:47:00.773Z,72.71
2023-04-27T00:49:29.325Z,74.57
2023-04-27T00:51:58.126Z,74.40
2023-04-27T00:54:26.277Z,73.18
2023-04-27T00:56:54.538Z,73.73
2023-04-27T00:59:22.948Z,77.38
2023-04-27T01:01:53.400Z,76.31
2023-04-27T01:04:21.836Z,75.39
2023-04-27T01:06:49.906Z,73.13
2023-04-27T01:09:20.047Z,76.73
2023-04-27T01:11:50.912Z,77.85
2023-04-27T01:14:18.805Z,81.03
2023-04-27T01:16:47.323Z,78.44
2023-04-27T01:19:15.902Z,74.24
2023-04-27T01:21:44.052Z,77.86
2023-04-27T01:24:12.080Z,79.44
2023-04-27T01:26:40.323Z,75.77
2023-04-27T01:29:08.371Z,79.04
2023-04-27T01:31:36.515Z,81.53
2023-04-27T01:34:05.000Z,77.21
2023-04-27T01:36:33.091Z,74.77
2023-04-27T01:39:00.965Z,76.15
2023-04-27T01:41:29.264Z,79.44
2023-04-27T01:43:57.165Z,78.86
2023-04-27T01:46:25.236Z,77.48
2023-04-27T01:48:53.534Z,76.32
2023-04-27T01:51:21.614Z,76.33
2023-04-27T01:53:50.248Z,77.33
2023-04-27T01:56:18.594Z,74.46
2023-04-27T01:58:46.492Z,74.58
2023-04-27T02:01:14.548Z,79.43
2023-04-27T02:03:42.917Z,77.79
2023-04-27T02:06:11.166Z,80.77
2023-04-27T02:08:40.256Z,83.59
2023-04-27T02:11:09.766Z,83.46
2023-04-27T02:13:37.809Z,84.47
2023-04-27T02:16:06.710Z,81.73
2023-04-27T02:18:35.356Z,77.82
2023-04-27T02:21:08.944Z,80.35
2023-04-27T02:23:37.451Z,81.65
2023-04-27T02:26:06.141Z,80.70
2023-04-27T02:28:34.065Z,78.49
2023-04-27T02:31:03.287Z,78.55
2023-04-27T02:33:31.708Z,79.03
2023-04-27T02:35:59.632Z,79.25
2023-04-27T02:38:30.503Z,78.74
2023-04-27T02:40:58.817Z,77.76
2023-04-27T02:43:27.277Z,75.23
2023-04-27T02:45:55.131Z,73.08
2023-04-27T02:48:23.368Z,71.38
2023-04-27T02:50:51.255Z,70.24
2023-04-27T02:53:19.222Z,69.77
2023-04-27T02:55:51.403Z,68.48
2023-04-27T02:58:20.144Z,67.12
2023-04-27T03:00:48.991Z,67.47
2023-04-27T03:03:17.210Z,65.89
2023-04-27T03:05:46.672Z,65.73
2023-04-27T03:08:15.054Z,65.15
2023-04-27T03:10:42.922Z,65.02
2023-04-27T03:13:11.144Z,65.33
2023-04-27T03:15:39.462Z,65.10
2023-04-27T03:18:07.368Z,65.17
2023-04-27T03:20:35.241Z,64.32
2023-04-27T03:23:03.499Z,66.09
2023-04-27T03:25:31.503Z,66.11
2023-04-27T03:27:59.608Z,67.34
2023-04-27T03:30:27.838Z,66.61
2023-04-27T03:32:56.594Z,67.87
2023-04-27T03:35:24.960Z,67.94
2023-04-27T03:37:53.409Z,68.81
2023-04-27T03:40:21.531Z,69.01
2023-04-27T03:42:49.396Z,66.80
2023-04-27T03:45:19.422Z,67.09
2023-04-27T03:47:47.366Z,67.85
2023-04-27T03:50:16.503Z,67.69
2023-04-27T03:52:44.784Z,67.16
2023-04-27T03:55:12.772Z,66.66
2023-04-27T03:57:42.013Z,67.69
2023-04-27T04:00:12.565Z,67.10
2023-04-27T04:02:40.785Z,67.20
2023-04-27T04:05:09.621Z,66.83
2023-04-27T04:07:37.637Z,66.93
2023-04-27T04:10:06.629Z,66.98
2023-04-27T04:12:35.183Z,67.06
2023-04-27T04:15:04.308Z,66.06
2023-04-27T04:17:34.230Z,64.54
2023-04-27T04:20:07.287Z,60.28
2023-04-27T04:22:35.293Z,57.83
2023-04-27T04:25:04.610Z,57.05
2023-04-27T04:27:33.700Z,55.77
2023-04-27T04:30:05.102Z,54.64
2023-04-27T04:32:34.240Z,53.76
2023-04-27T04:35:02.631Z,53.56
2023-04-27T04:37:30.675Z,52.75
2023-04-27T04:39:58.989Z,52.94
2023-04-27T04:42:27.754Z,53.04
2023-04-27T04:44:55.797Z,53.53
2023-04-27T04:47:24.038Z,53.90
2023-04-27T04:49:53.223Z,53.81
2023-04-27T04:52:21.489Z,53.89
2023-04-27T04:54:53.396Z,53.85
2023-04-27T04:57:22.463Z,53.30
2023-04-27T04:59:51.017Z,52.52
2023-04-27T05:02:19.043Z,50.40
2023-04-27T05:04:47.222Z,49.90
2023-04-27T05:07:16.409Z,52.07
2023-04-27T05:09:46.742Z,51.97
2023-04-27T05:12:14.764Z,52.10
2023-04-27T05:14:43.970Z,51.50
2023-04-27T05:17:12.691Z,51.46
2023-04-27T05:19:40.758Z,51.35
2023-04-27T05:22:09.015Z,49.44
2023-04-27T05:24:37.056Z,49.55
2023-04-27T05:27:05.328Z,48.75
2023-04-27T05:29:33.987Z,48.39
2023-04-27T05:32:02.157Z,49.25
2023-04-27T05:34:30.067Z,48.59
2023-04-27T05:36:58.357Z,46.02
2023-04-27T05:39:26.492Z,46.49
2023-04-27T05:41:54.438Z,44.70
2023-04-27T05:44:23.049Z,47.16
2023-04-27T05:46:51.225Z,45.24
2023-04-27T05:49:19.100Z,43.56
2023-04-27T05:51:47.372Z,43.74
2023-04-27T05:54:15.764Z,43.81
2023-04-27T05:56:43.722Z,42.66
2023-04-27T05:59:12.341Z,43.30
2023-04-27T06:01:40.498Z,43.91
2023-04-27T06:04:09.124Z,41.74
2023-04-27T06:06:37.309Z,39.84
2023-04-27T06:09:05.394Z,38.16
2023-04-27T06:11:33.693Z,43.51
2023-04-27T06:14:01.557Z,41.50
2023-04-27T06:16:29.838Z,38.63
2023-04-27T06:18:58.404Z,39.65
2023-04-27T06:21:26.716Z,36.10
2023-04-27T06:23:54.685Z,36.03
2023-04-27T06:26:23.110Z,35.01
2023-04-27T06:28:51.067Z,34.12
2023-04-27T06:31:19.616Z,32.98
2023-04-27T06:33:48.388Z,31.09
2023-04-27T06:36:16.502Z,37.83
2023-04-27T06:38:44.549Z,32.00
2023-04-27T06:41:13.209Z,31.39
2023-04-27T06:43:41.164Z,33.05
2023-04-27T06:46:09.185Z,28.31
2023-04-27T06:48:37.587Z,27.53
2023-04-27T06:51:05.830Z,28.44
2023-04-27T06:53:34.072Z,29.34
2023-04-27T06:56:02.714Z,32.03
2023-04-27T06:58:30.686Z,27.68
2023-04-27T07:00:58.654Z,27.28
2023-04-27T07:03:27.102Z,29.47
2023-04-27T07:05:56.818Z,27.47
2023-04-27T07:08:24.951Z,29.99
2023-04-27T07:10:53.444Z,25.53
2023-04-27T07:13:21.612Z,27.39
2023-04-27T07:15:55.274Z,29.28
2023-04-27T07:18:23.954Z,28.98
2023-04-27T07:20:51.938Z,26.83
2023-04-27T07:23:20.077Z,30.19
2023-04-27T07:25:48.413Z,25.35
2023-04-27T07:28:16.544Z,27.78
2023-04-27T07:30:44.965Z,29.80
2023-04-27T07:33:13.544Z,29.48
2023-04-27T07:35:42.251Z,31.29
2023-04-27T07:38:10.203Z,30.22
2023-04-27T07:40:38.626Z,31.35
2023-04-27T07:43:06.599Z,33.07
2023-04-27T07:45:34.795Z,34.40
2023-04-27T07:48:03.377Z,36.00
2023-04-27T07:50:32.148Z,35.32
2023-04-27T07:53:00.375Z,32.16
2023-04-27T07:55:29.169Z,31.32
2023-04-27T07:57:57.775Z,31.27
2023-04-27T08:00:27.033Z,30.40
2023-04-27T08:02:56.191Z,34.95
2023-04-27T08:05:24.977Z,33.63
2023-04-27T08:07:54.580Z,32.37
2023-04-27T08:10:23.882Z,34.56
2023-04-27T08:12:52.088Z,29.47
2023-04-27T08:15:22.429Z,29.39
2023-04-27T08:17:51.609Z,29.74
2023-04-27T08:20:19.753Z,32.21
2023-04-27T08:22:47.748Z,30.93
2023-04-27T08:25:16.086Z,30.99
2023-04-27T08:27:44.154Z,30.84
2023-04-27T08:30:12.343Z,27.36
2023-04-27T08:32:41.272Z,30.53
2023-04-27T08:35:09.718Z,29.78
2023-04-27T08:37:37.865Z,30.04
2023-04-27T08:40:10.115Z,28.06
2023-04-27T08:42:38.511Z,31.18
2023-04-27T08:45:08.835Z,32.21
2023-04-27T08:47:43.368Z,31.49
2023-04-27T08:50:12.832Z,27.99
2023-04-27T08:52:40.945Z,28.56
2023-04-27T08:55:09.426Z,30.64
2023-04-27T08:57:37.745Z,29.53
2023-04-27T09:00:13.540Z,26.62
2023-04-27T09:02:46.609Z,28.21
2023-04-27T09:05:22.825Z,29.30
2023-04-27T09:08:02.895Z,24.95
2023-04-27T09:10:33.870Z,26.07
2023-04-27T09:13:02.262Z,25.42
2023-04-27T09:15:30.378Z,29.57
2023-04-27T09:17:58.941Z,23.68
2023-04-27T09:20:27.559Z,22.77
2023-04-27T09:22:58.711Z,26.66
2023-04-27T09:25:33.715Z,26.41
2023-04-27T09:28:02.115Z,28.41
2023-04-27T09:30:30.970Z,25.94
2023-04-27T09:33:03.899Z,26.11
2023-04-27T09:35:33.242Z,25.86
2023-04-27T09:38:01.918Z,25.09
2023-04-27T09:40:31.597Z,24.61
2023-04-27T09:43:04.054Z,25.92
2023-04-27T09:45:34.119Z,27.24
2023-04-27T09:48:02.963Z,27.74
2023-04-27T09:50:31.841Z,27.14
2023-04-27T09:52:59.783Z,25.42
2023-04-27T09:55:33.293Z,26.16
2023-04-27T09:58:33.283Z,24.59
2023-04-27T10:01:24.407Z,27.35
2023-04-27T10:04:04.748Z,27.00
2023-04-27T10:07:14.784Z,27.38
2023-04-27T10:09:43.009Z,27.38
2023-04-27T10:12:23.939Z,27.15
2023-04-27T10:14:56.968Z,28.52
2023-04-27T10:17:33.484Z,30.57
2023-04-27T10:20:04.166Z,30.94
2023-04-27T10:22:40.437Z,27.43
2023-04-27T10:25:15.202Z,26.22
2023-04-27T10:27:43.219Z,25.92
2023-04-27T10:30:12.734Z,27.22
2023-04-27T10:32:54.619Z,27.81
2023-04-27T10:35:32.747Z,24.94
2023-04-27T10:38:08.850Z,22.85
2023-04-27T10:40:38.509Z,26.09
2023-04-27T10:43:14.422Z,26.47
2023-04-27T10:45:44.155Z,27.55
2023-04-27T10:48:17.804Z,28.50
2023-04-27T10:50:47.036Z,25.55
2023-04-27T10:53:15.882Z,24.73
2023-04-27T10:55:43.881Z,26.86
2023-04-27T10:58:12.479Z,27.89
2023-04-27T11:00:45.004Z,24.93
2023-04-27T11:03:24.264Z,29.11
2023-04-27T11:06:04.421Z,29.72
2023-04-27T11:08:34.357Z,28.42
2023-04-27T11:11:02.535Z,25.71
2023-04-27T11:13:31.152Z,26.77
2023-04-27T11:16:00.303Z,27.59
2023-04-27T11:18:31.816Z,25.81
2023-04-27T11:21:14.294Z,25.31
2023-04-27T11:23:42.583Z,25.47
2023-04-27T11:26:11.884Z,25.76
2023-04-27T11:28:39.813Z,24.16
2023-04-27T11:31:08.149Z,24.03
2023-04-27T11:33:36.608Z,23.33
2023-04-27T11:36:04.709Z,24.73
2023-04-27T11:38:36.416Z,28.46
2023-04-27T11:41:07.962Z,26.59
2023-04-27T11:43:41.122Z,25.18
2023-04-27T11:46:12.869Z,28.35
2023-04-27T11:48:41.384Z,28.78
2023-04-27T11:51:11.354Z,27.56
2023-04-27T11:53:40.332Z,27.49
2023-04-27T11:56:11.161Z,30.08
2023-04-27T11:58:40.119Z,30.07
2023-04-27T12:01:09.200Z,29.77
2023-04-27T12:03:38.163Z,30.44
2023-04-27T12:06:27.575Z,31.60
2023-04-27T12:08:57.215Z,31.29
2023-04-27T12:11:28.381Z,32.33
2023-04-27T12:13:57.644Z,30.67
2023-04-27T12:16:25.593Z,30.97
2023-04-27T12:18:53.652Z,31.61
2023-04-27T12:21:22.452Z,33.09
2023-04-27T12:23:51.027Z,31.92
2023-04-27T12:26:18.957Z,32.06
2023-04-27T12:28:47.314Z,30.72
2023-04-27T12:31:24.724Z,29.82
2023-04-27T12:33:54.491Z,31.74
2023-04-27T12:36:22.437Z,30.41
2023-04-27T12:38:50.630Z,27.95
2023-04-27T12:41:18.905Z,30.18
2023-04-27T12:43:48.677Z,27.56
2023-04-27T12:46:16.860Z,31.60
2023-04-27T12:48:45.360Z,28.92
2023-04-27T12:51:13.548Z,30.85
2023-04-27T12:53:41.523Z,28.34
2023-04-27T12:56:09.827Z,31.55
2023-04-27T12:58:37.731Z,27.97
2023-04-27T13:01:07.940Z,29.73
2023-04-27T13:03:36.669Z,30.53
2023-04-27T13:06:04.839Z,29.65
2023-04-27T13:08:33.046Z,32.05
2023-04-27T13:11:01.655Z,31.93
2023-04-27T13:13:29.720Z,31.37
2023-04-27T13:15:58.609Z,33.54
2023-04-27T13:18:26.957Z,34.61
2023-04-27T13:20:54.786Z,32.81
2023-04-27T13:23:22.744Z,32.21
2023-04-27T13:25:51.028Z,33.75
2023-04-27T13:28:18.931Z,32.60
2023-04-27T13:30:48.993Z,34.20
2023-04-27T13:33:23.200Z,34.40
2023-04-27T13:35:52.101Z,31.86
2023-04-27T13:38:20.545Z,30.91
2023-04-27T13:40:48.582Z,31.39
2023-04-27T13:43:16.529Z,31.93
2023-04-27T13:45:45.618Z,29.64
2023-04-27T13:48:13.661Z,32.16
2023-04-27T13:50:41.625Z,32.57
2023-04-27T13:53:10.012Z,32.82
2023-04-27T13:55:38.024Z,32.63
2023-04-27T13:58:05.983Z,31.80
2023-04-27T14:00:34.895Z,31.51
2023-04-27T14:03:05.000Z,30.22
2023-04-27T14:05:33.185Z,30.57
2023-04-27T14:08:01.065Z,30.87
2023-04-27T14:10:29.740Z,31.54
2023-04-27T14:12:57.712Z,31.71
2023-04-27T14:15:25.689Z,33.36
2023-04-27T14:17:54.004Z,32.77
2023-04-27T14:20:22.005Z,29.87
2023-04-27T14:22:49.941Z,30.20
2023-04-27T14:25:18.392Z,31.06
2023-04-27T14:27:46.411Z,32.46
2023-04-27T14:30:14.498Z,30.18
2023-04-27T14:32:42.850Z,30.31
2023-04-27T14:35:11.079Z,31.46
2023-04-27T14:37:38.954Z,30.49
2023-04-27T14:40:08.198Z,30.39
2023-04-27T14:42:36.408Z,32.11
2023-04-27T14:45:04.682Z,31.69
2023-04-27T14:47:33.017Z,30.78
2023-04-27T14:50:00.998Z,31.83
2023-04-27T14:52:29.279Z,32.08
2023-04-27T14:54:57.543Z,32.39
2023-04-27T14:57:25.428Z,31.23
2023-04-27T14:59:53.381Z,30.83
2023-04-27T15:02:21.672Z,30.86
2023-04-27T15:04:49.693Z,28.39
2023-04-27T15:07:17.761Z,31.21
2023-04-27T15:09:46.335Z,29.04
2023-04-27T15:12:14.349Z,32.38
2023-04-27T15:14:42.517Z,32.41
2023-04-27T15:17:13.236Z,30.06
2023-04-27T15:19:41.476Z,31.64
2023-04-27T15:22:09.478Z,30.36
2023-04-27T15:24:37.896Z,31.88
2023-04-27T15:27:07.756Z,30.70
2023-04-27T15:29:37.535Z,29.75
2023-04-27T15:32:05.646Z,32.67
2023-04-27T15:34:33.765Z,32.64
2023-04-27T15:37:03.130Z,32.95
2023-04-27T15:39:31.313Z,31.97
2023-04-27T15:42:00.047Z,32.21
2023-04-27T15:44:28.537Z,31.87
2023-04-27T15:46:56.548Z,30.52
2023-04-27T15:49:24.582Z,32.45
2023-04-27T15:51:55.416Z,31.60
2023-04-27T15:54:23.492Z,32.41
2023-04-27T15:56:51.972Z,32.31
2023-04-27T15:59:20.255Z,32.93
2023-04-27T16:01:48.198Z,33.51
2023-04-27T16:04:16.726Z,33.35
2023-04-27T16:06:44.761Z,34.87
2023-04-27T16:09:13.304Z,33.69
2023-04-27T16:11:42.850Z,34.71
2023-04-27T16:14:11.040Z,35.39
2023-04-27T16:16:39.096Z,35.27
2023-04-27T16:19:08.934Z,33.71
2023-04-27T16:21:36.963Z,35.48
2023-04-27T16:24:05.243Z,35.28
2023-04-27T16:26:33.532Z,34.06
2023-04-27T16:29:01.622Z,35.47
2023-04-27T16:31:29.509Z,37.24
2023-04-27T16:33:57.830Z,35.49
2023-04-27T16:36:25.793Z,36.47
2023-04-27T16:38:53.776Z,37.39
2023-04-27T16:41:22.802Z,37.20
2023-04-27T16:43:51.201Z,36.87
2023-04-27T16:46:19.291Z,36.33
2023-04-27T16:48:47.564Z,34.99
2023-04-27T16:51:15.553Z,35.23
2023-04-27T16:53:43.434Z,36.11
2023-04-27T16:56:13.636Z,36.49
2023-04-27T16:58:41.637Z,37.08
2023-04-27T17:01:09.552Z,37.69
2023-04-27T17:03:37.787Z,39.28
2023-04-27T17:06:05.886Z,38.45
2023-04-27T17:08:34.411Z,38.79
2023-04-27T17:11:02.785Z,38.46
2023-04-27T17:13:31.926Z,39.19
2023-04-27T17:15:59.887Z,39.42
2023-04-27T17:18:28.179Z,40.55
2023-04-27T17:20:56.101Z,42.14
2023-04-27T17:23:24.068Z,43.67
2023-04-27T17:25:52.361Z,44.96
2023-04-27T17:28:20.871Z,47.22
2023-04-27T17:30:48.790Z,47.69
2023-04-27T17:33:17.297Z,49.94
2023-04-27T17:35:47.296Z,48.44
2023-04-27T17:38:15.691Z,46.05
2023-04-27T17:40:44.200Z,49.40
2023-04-27T17:43:12.081Z,49.61
2023-04-27T17:45:40.099Z,52.01
2023-04-27T17:48:08.496Z,51.35
2023-04-27T17:50:37.881Z,53.03
2023-04-27T17:53:06.112Z,53.76
2023-04-27T17:55:34.432Z,54.98
2023-04-27T17:58:04.257Z,58.31
2023-04-27T18:00:32.401Z,59.03
2023-04-27T18:03:00.959Z,58.08
2023-04-27T18:05:29.012Z,55.71
2023-04-27T18:07:56.894Z,58.43
2023-04-27T18:10:25.154Z,60.78
2023-04-27T18:12:53.210Z,63.34
2023-04-27T18:15:21.255Z,64.17
2023-04-27T18:17:49.641Z,61.46
2023-04-27T18:20:17.674Z,66.48
2023-04-27T18:22:45.709Z,64.59
2023-04-27T18:25:14.023Z,64.96
2023-04-27T18:27:44.119Z,62.40
2023-04-27T18:30:12.332Z,67.29
2023-04-27T18:32:40.663Z,67.58
2023-04-27T18:35:09.023Z,69.94
2023-04-27T18:37:36.956Z,67.09
2023-04-27T18:40:06.170Z,65.99
2023-04-27T18:42:34.103Z,68.24
2023-04-27T18:45:02.101Z,68.95
2023-04-27T18:47:30.427Z,70.43
2023-04-27T18:49:58.455Z,72.27
2023-04-27T18:52:26.385Z,72.21
2023-04-27T18:54:54.632Z,70.34
2023-04-27T18:57:23.041Z,72.11
2023-04-27T18:59:51.016Z,73.48
2023-04-27T19:02:19.240Z,71.98
2023-04-27T19:04:52.780Z,72.48
2023-04-27T19:07:30.197Z,71.90
2023-04-27T19:09:58.166Z,72.99
2023-04-27T19:12:26.116Z,72.01
2023-04-27T19:14:54.341Z,73.96
2023-04-27T19:17:22.510Z,75.02
2023-04-27T19:19:50.599Z,72.01
2023-04-27T19:22:19.051Z,72.64
2023-04-27T19:24:47.311Z,72.06
2023-04-27T19:27:15.286Z,75.62
2023-04-27T19:29:55.058Z,73.52
2023-04-27T19:32:27.404Z,76.79
2023-04-27T19:34:57.135Z,75.96
2023-04-27T19:37:25.302Z,77.55
2023-04-27T19:39:53.285Z,76.32
2023-04-27T19:42:21.598Z,75.29
2023-04-27T19:44:49.514Z,75.28
2023-04-27T19:47:17.376Z,76.70
2023-04-27T19:49:45.882Z,76.06
2023-04-27T19:52:13.905Z,78.09
2023-04-27T19:54:41.956Z,79.13
2023-04-27T19:57:10.170Z,80.80
2023-04-27T19:59:38.220Z,76.29
2023-04-27T20:02:06.310Z,72.60
2023-04-27T20:04:35.423Z,75.63
2023-04-27T20:07:05.609Z,77.21
2023-04-27T20:09:34.197Z,78.67
2023-04-27T20:12:02.275Z,77.47
2023-04-27T20:14:33.885Z,78.88
2023-04-27T20:17:03.099Z,77.34
2023-04-27T20:19:31.267Z,79.52
2023-04-27T20:22:00.940Z,79.38
2023-04-27T20:24:31.385Z,75.48
2023-04-27T20:26:59.514Z,80.92
2023-04-27T20:29:27.496Z,77.42
2023-04-27T20:31:55.782Z,75.43
2023-04-27T20:34:23.796Z,72.20
2023-04-27T20:36:53.266Z,74.07
2023-04-27T20:39:24.318Z,76.37
2023-04-27T20:41:52.249Z,75.02
2023-04-27T20:44:21.201Z,77.29
2023-04-27T20:46:49.646Z,80.54
2023-04-27T20:49:24.668Z,78.43
2023-04-27T20:52:00.646Z,81.03
2023-04-27T20:54:28.744Z,78.91
2023-04-27T20:56:56.676Z,81.15
2023-04-27T20:59:24.980Z,81.38
2023-04-27T21:01:52.906Z,83.06
2023-04-27T21:04:21.135Z,81.81
2023-04-27T21:06:49.699Z,82.77
2023-04-27T21:09:17.649Z,80.75
2023-04-27T21:11:45.616Z,77.06
2023-04-27T21:14:14.125Z,77.07
2023-04-27T21:16:42.276Z,80.25
2023-04-27T21:19:13.205Z,75.95
2023-04-27T21:21:41.558Z,78.94
2023-04-27T21:24:10.065Z,78.67
2023-04-27T21:26:38.013Z,77.63
2023-04-27T21:29:08.392Z,78.03
2023-04-27T21:31:36.751Z,81.57
2023-04-27T21:34:04.876Z,78.13
2023-04-27T21:36:33.343Z,77.61
2023-04-27T21:39:01.354Z,79.93
2023-04-27T21:41:29.368Z,77.91
2023-04-27T21:43:57.642Z,81.82
2023-04-27T21:46:25.764Z,82.68
2023-04-27T21:48:53.642Z,79.39
2023-04-27T21:51:21.909Z,81.51
2023-04-27T21:53:49.878Z,78.87
2023-04-27T21:56:17.911Z,78.95
2023-04-27T21:58:46.246Z,82.48
2023-04-27T22:01:14.682Z,79.39
2023-04-27T22:03:43.061Z,79.92
2023-04-27T22:06:11.124Z,81.73
2023-04-27T22:08:39.070Z,83.19
2023-04-27T22:11:08.161Z,82.83
2023-04-27T22:13:36.162Z,83.94
2023-04-27T22:16:04.189Z,82.93
2023-04-27T22:18:32.525Z,83.33
2023-04-27T22:21:00.426Z,84.65
2023-04-27T22:23:29.795Z,84.52
2023-04-27T22:25:58.132Z,83.88
2023-04-27T22:28:26.217Z,83.88
2023-04-27T22:30:55.157Z,81.59
2023-04-27T22:33:23.369Z,84.25
2023-04-27T22:35:51.380Z,84.42
2023-04-27T22:38:19.315Z,86.04
2023-04-27T22:40:47.666Z,86.19
2023-04-27T22:43:15.652Z,84.87
2023-04-27T22:45:43.654Z,86.09
2023-04-27T22:48:13.034Z,86.64
2023-04-27T22:50:40.948Z,85.58
2023-04-27T22:53:08.927Z,80.90
2023-04-27T22:55:37.140Z,83.23
2023-04-27T22:58:05.228Z,85.65
2023-04-27T23:00:33.124Z,88.31
2023-04-27T23:03:01.666Z,85.19
2023-04-27T23:05:29.696Z,82.05
2023-04-27T23:07:57.706Z,84.30
2023-04-27T23:10:27.015Z,82.48
2023-04-27T23:12:57.220Z,83.96
2023-04-27T23:15:25.480Z,81.12
2023-04-27T23:17:53.509Z,83.46
2023-04-27T23:20:27.885Z,87.11
2023-04-27T23:22:57.387Z,89.17
2023-04-27T23:25:25.388Z,89.98
2023-04-27T23:27:53.371Z,89.81
2023-04-27T23:30:22.482Z,90.34
2023-04-27T23:32:50.542Z,90.77
2023-04-27T23:35:18.606Z,89.43
2023-04-27T23:37:46.873Z,88.08
2023-04-27T23:40:14.883Z,89.16
2023-04-27T23:42:42.806Z,90.11
2023-04-27T23:45:11.564Z,87.83
2023-04-27T23:47:39.745Z,88.11
2023-04-27T23:50:08.447Z,88.73
2023-04-27T23:52:37.355Z,86.29
2023-04-27T23:55:05.815Z,82.61
2023-04-27T23:57:33.858Z,80.76
